createdAt,value
2018-12-05T00:00:42.735Z,13.93
2018-12-05T00:03:11.812Z,21.20
2018-12-05T00:05:40.941Z,18.03
2018-12-05T00:08:39.689Z,27.40
2018-12-05T00:11:07.956Z,18.00
2018-12-05T00:13:36.215Z,42.37
2018-12-05T00:16:04.597Z,31.10
2018-12-05T00:18:32.948Z,23.80
2018-12-05T00:21:01.183Z,22.60
2018-12-05T00:23:29.543Z,24.27
2018-12-05T00:25:57.819Z,30.90
2018-12-05T00:28:26.067Z,33.13
2018-12-05T00:30:54.392Z,24.40
2018-12-05T00:33:22.641Z,36.07
2018-12-05T00:35:50.908Z,32.07
2018-12-05T00:38:19.205Z,33.60
2018-12-05T00:40:47.553Z,31.83
2018-12-05T00:43:15.796Z,26.73
2018-12-05T00:45:44.115Z,32.70
2018-12-05T00:48:12.675Z,27.47
2018-12-05T00:50:40.972Z,29.67
2018-12-05T00:53:09.261Z,28.60
2018-12-05T00:55:37.527Z,31.33
2018-12-05T00:58:05.777Z,31.87
2018-12-05T01:00:34.140Z,27.80
2018-12-05T01:03:02.408Z,25.10
2018-12-05T01:05:30.614Z,31.17
2018-12-05T01:07:59.421Z,25.20
2018-12-05T01:10:27.651Z,37.07
2018-12-05T01:12:55.901Z,20.43
2018-12-05T01:15:24.262Z,36.20
2018-12-05T01:17:52.515Z,35.17
2018-12-05T01:20:20.792Z,28.97
2018-12-05T01:22:49.067Z,35.43
2018-12-05T01:25:17.420Z,23.27
2018-12-05T01:27:45.699Z,22.90
2018-12-05T01:30:13.966Z,24.60
2018-12-05T01:32:42.226Z,24.10
2018-12-05T01:35:10.481Z,21.20
2018-12-05T01:37:39.700Z,17.37
2018-12-05T01:40:08.030Z,20.20
2018-12-05T01:42:36.376Z,20.90
2018-12-05T01:45:05.145Z,21.63
2018-12-05T01:47:33.404Z,17.20
2018-12-05T01:50:01.705Z,17.20
2018-12-05T01:52:29.926Z,19.03
2018-12-05T01:54:58.757Z,26.50
2018-12-05T01:57:27.052Z,17.17
2018-12-05T01:59:55.437Z,23.43
2018-12-05T02:02:23.676Z,21.53
2018-12-05T02:04:51.956Z,22.90
2018-12-05T02:07:20.246Z,28.23
2018-12-05T02:09:48.548Z,18.23
2018-12-05T02:12:16.825Z,17.80
2018-12-05T02:14:45.336Z,20.33
2018-12-05T02:17:13.646Z,21.60
2018-12-05T02:19:41.955Z,24.90
2018-12-05T02:22:10.256Z,32.03
2018-12-05T02:24:38.504Z,26.63
2018-12-05T02:27:06.770Z,19.30
2018-12-05T02:29:40.701Z,18.90
2018-12-05T02:32:08.937Z,30.80
2018-12-05T02:34:37.377Z,20.53
2018-12-05T02:37:05.728Z,19.37
2018-12-05T02:39:33.980Z,16.77
2018-12-05T02:42:02.333Z,26.33
2018-12-05T02:44:30.573Z,19.43
2018-12-05T02:46:58.819Z,26.50
2018-12-05T02:49:28.213Z,16.40
2018-12-05T02:51:56.495Z,16.20
2018-12-05T02:54:24.780Z,18.10
2018-12-05T02:56:53.121Z,32.50
2018-12-05T02:59:21.377Z,28.73
2018-12-05T03:01:49.828Z,19.17
2018-12-05T03:04:18.177Z,26.90
2018-12-05T03:06:46.493Z,31.23
2018-12-05T03:09:14.753Z,24.83
2018-12-05T03:11:43.004Z,21.43
2018-12-05T03:14:11.354Z,30.53
2018-12-05T03:16:39.577Z,25.87
2018-12-05T03:19:08.008Z,23.07
2018-12-05T03:21:36.263Z,30.03
2018-12-05T03:24:04.562Z,33.13
2018-12-05T03:26:32.844Z,29.03
2018-12-05T03:29:01.099Z,28.00
2018-12-05T03:31:29.570Z,28.53
2018-12-05T03:33:57.927Z,27.90
2018-12-05T03:36:26.254Z,22.20
2018-12-05T03:38:54.569Z,19.97
2018-12-05T03:41:23.350Z,34.97
2018-12-05T03:43:51.693Z,30.53
2018-12-05T03:46:19.933Z,25.97
2018-12-05T03:48:48.265Z,33.20
2018-12-05T03:51:16.561Z,24.30
2018-12-05T03:53:44.849Z,28.23
2018-12-05T03:56:13.381Z,22.63
2018-12-05T03:58:41.717Z,23.53
2018-12-05T04:01:09.946Z,18.83
2018-12-05T04:03:38.230Z,22.17
2018-12-05T04:06:06.521Z,21.90
2018-12-05T04:08:34.837Z,23.00
2018-12-05T04:11:03.236Z,23.77
2018-12-05T04:13:31.695Z,25.27
2018-12-05T04:15:59.928Z,22.70
2018-12-05T04:18:28.214Z,19.77
2018-12-05T04:20:56.551Z,26.70
2018-12-05T04:23:25.392Z,20.33
2018-12-05T04:25:53.788Z,17.43
2018-12-05T04:28:22.300Z,18.60
2018-12-05T04:30:50.516Z,18.20
2018-12-05T04:33:18.796Z,27.30
2018-12-05T04:35:47.053Z,23.53
2018-12-05T04:38:15.302Z,34.80
2018-12-05T04:40:43.640Z,22.33
2018-12-05T04:43:11.999Z,27.90
2018-12-05T04:45:40.222Z,22.43
2018-12-05T04:48:08.511Z,41.37
2018-12-05T04:50:36.815Z,33.60
2018-12-05T04:53:05.050Z,30.17
2018-12-05T04:55:33.696Z,33.40
2018-12-05T04:58:01.938Z,40.00
2018-12-05T05:00:30.248Z,38.87
2018-12-05T05:02:59.606Z,39.90
2018-12-05T05:05:27.835Z,42.30
2018-12-05T05:07:56.092Z,33.27
2018-12-05T05:10:24.339Z,58.00
2018-12-05T05:12:52.619Z,35.10
2018-12-05T05:15:20.809Z,49.80
2018-12-05T05:17:49.186Z,36.77
2018-12-05T05:20:17.462Z,48.97
2018-12-05T05:22:46.236Z,53.07
2018-12-05T05:25:14.531Z,49.40
2018-12-05T05:27:45.970Z,29.87
2018-12-05T05:30:13.447Z,43.37
2018-12-05T05:32:41.657Z,30.73
2018-12-05T05:35:10.020Z,40.30
2018-12-05T05:37:38.417Z,42.63
2018-12-05T05:40:06.705Z,34.80
2018-12-05T05:42:34.952Z,40.63
2018-12-05T05:45:03.308Z,35.17
2018-12-05T05:47:31.641Z,48.03
2018-12-05T05:49:59.933Z,38.47
2018-12-05T05:52:28.152Z,47.30
2018-12-05T05:54:56.385Z,51.37
2018-12-05T05:57:24.674Z,43.20
2018-12-05T05:59:52.924Z,55.77
2018-12-05T06:02:21.183Z,38.53
2018-12-05T06:04:49.454Z,32.70
2018-12-05T06:07:17.744Z,43.73
2018-12-05T06:09:45.972Z,46.63
2018-12-05T06:12:14.308Z,41.80
2018-12-05T06:14:42.536Z,43.47
2018-12-05T06:17:10.773Z,44.10
2018-12-05T06:19:39.051Z,34.23
2018-12-05T06:22:07.304Z,32.80
2018-12-05T06:24:36.166Z,46.37
2018-12-05T06:27:04.413Z,35.97
2018-12-05T06:29:32.826Z,30.60
2018-12-05T06:32:01.133Z,34.23
2018-12-05T06:34:29.364Z,37.70
2018-12-05T06:36:58.784Z,31.43
2018-12-05T06:39:27.012Z,38.40
2018-12-05T06:41:55.829Z,28.93
2018-12-05T06:44:24.096Z,39.33
2018-12-05T06:46:52.626Z,32.60
2018-12-05T06:49:20.984Z,27.70
2018-12-05T06:51:49.308Z,43.93
2018-12-05T06:54:17.650Z,35.37
2018-12-05T06:56:45.980Z,38.63
2018-12-05T06:59:14.309Z,47.57
2018-12-05T07:01:42.676Z,29.43
2018-12-05T07:04:10.941Z,36.70
2018-12-05T07:06:39.246Z,47.33
2018-12-05T07:09:07.996Z,34.93
2018-12-05T07:11:36.375Z,39.80
2018-12-05T07:14:04.723Z,36.43
2018-12-05T07:16:32.986Z,34.90
2018-12-05T07:19:01.274Z,34.27
2018-12-05T07:21:29.512Z,35.13
2018-12-05T07:23:57.754Z,45.30
2018-12-05T07:26:26.012Z,34.20
2018-12-05T07:28:54.315Z,43.47
2018-12-05T07:31:22.535Z,33.40
2018-12-05T07:33:50.836Z,51.00
2018-12-05T07:36:19.149Z,33.43
2018-12-05T07:38:47.368Z,33.00
2018-12-05T07:41:15.641Z,43.00
2018-12-05T07:43:43.871Z,31.73
2018-12-05T07:46:12.163Z,34.13
2018-12-05T07:48:40.454Z,32.07
2018-12-05T07:51:08.716Z,33.07
2018-12-05T07:53:37.018Z,28.67
2018-12-05T07:56:05.255Z,36.20
2018-12-05T07:58:33.520Z,39.30
2018-12-05T08:01:01.926Z,34.47
2018-12-05T08:03:30.187Z,39.43
2018-12-05T08:05:58.439Z,36.30
2018-12-05T08:08:26.712Z,32.43
2018-12-05T08:10:54.961Z,35.60
2018-12-05T08:13:23.229Z,36.13
2018-12-05T08:18:17.911Z,34.97
2018-12-05T08:20:46.160Z,31.00
2018-12-05T08:23:14.517Z,37.40
2018-12-05T08:25:42.765Z,32.27
2018-12-05T08:28:12.127Z,31.73
2018-12-05T08:30:40.752Z,26.53
2018-12-05T08:33:09.452Z,25.27
2018-12-05T08:35:37.781Z,31.70
2018-12-05T08:38:06.013Z,33.33
2018-12-05T08:40:34.360Z,36.43
2018-12-05T08:43:02.795Z,30.37
2018-12-05T08:45:31.021Z,29.33
2018-12-05T08:47:59.417Z,34.23
2018-12-05T08:50:27.784Z,31.37
2018-12-05T08:52:56.043Z,46.17
2018-12-05T08:55:24.420Z,23.73
2018-12-05T08:57:52.738Z,29.77
2018-12-05T09:00:20.994Z,25.43
2018-12-05T09:02:49.320Z,24.23
2018-12-05T09:05:17.625Z,23.60
2018-12-05T09:07:45.863Z,32.57
2018-12-05T09:10:14.109Z,28.10
2018-12-05T09:12:42.361Z,27.30
2018-12-05T09:15:10.594Z,28.13
2018-12-05T09:17:38.846Z,33.23
2018-12-05T09:20:07.243Z,19.93
2018-12-05T09:22:41.269Z,26.67
2018-12-05T09:25:05.829Z,36.63
2018-12-05T09:27:34.101Z,24.87
2018-12-05T09:30:02.616Z,21.03
2018-12-05T09:32:30.870Z,23.47
2018-12-05T09:35:00.107Z,30.60
2018-12-05T09:37:28.377Z,30.17
2018-12-05T09:39:56.683Z,23.37
2018-12-05T09:42:24.912Z,20.50
2018-12-05T09:44:53.199Z,25.13
2018-12-05T09:47:21.418Z,29.80
2018-12-05T09:49:49.673Z,18.67
2018-12-05T09:52:17.916Z,21.20
2018-12-05T09:54:47.001Z,23.37
2018-12-05T09:57:15.227Z,23.13
2018-12-05T09:59:43.458Z,18.70
2018-12-05T10:02:11.751Z,22.50
2018-12-05T10:04:39.984Z,21.03
2018-12-05T10:07:08.322Z,29.17
2018-12-05T10:09:36.925Z,27.50
2018-12-05T10:12:05.249Z,17.90
2018-12-05T10:14:33.598Z,19.27
2018-12-05T10:17:02.092Z,27.47
2018-12-05T10:19:30.368Z,26.73
2018-12-05T10:21:58.762Z,23.23
2018-12-05T10:24:27.056Z,18.20
2018-12-05T10:26:55.487Z,15.73
2018-12-05T10:29:23.777Z,29.93
2018-12-05T10:31:52.346Z,16.00
2018-12-05T10:34:20.605Z,14.50
2018-12-05T10:36:49.027Z,24.37
2018-12-05T10:39:17.240Z,20.50
2018-12-05T10:41:45.569Z,21.10
2018-12-05T10:44:13.852Z,24.43
2018-12-05T10:46:42.157Z,20.07
2018-12-05T10:49:10.386Z,14.80
2018-12-05T10:51:38.709Z,21.20
2018-12-05T10:54:06.953Z,26.70
2018-12-05T10:56:35.854Z,23.00
2018-12-05T10:59:04.120Z,23.60
2018-12-05T11:01:38.166Z,32.03
2018-12-05T11:04:08.393Z,20.37
2018-12-05T11:06:42.416Z,25.50
2018-12-05T11:09:16.398Z,24.70
2018-12-05T11:11:50.216Z,26.27
2018-12-05T11:14:24.128Z,29.93
2018-12-05T11:16:54.954Z,22.70
2018-12-05T11:19:28.853Z,29.90
2018-12-05T11:22:02.839Z,21.83
2018-12-05T11:24:32.879Z,29.33
2018-12-05T11:27:01.138Z,29.87
2018-12-05T11:29:29.391Z,31.17
2018-12-05T11:31:57.635Z,27.40
2018-12-05T11:34:25.932Z,23.00
2018-12-05T11:36:54.260Z,24.50
2018-12-05T11:39:22.530Z,31.20
2018-12-05T11:41:50.821Z,18.90
2018-12-05T11:44:19.064Z,21.20
2018-12-05T11:46:48.558Z,32.33
2018-12-05T11:49:16.991Z,24.83
2018-12-05T11:51:46.040Z,22.70
2018-12-05T11:54:14.307Z,32.53
2018-12-05T11:56:42.767Z,30.13
2018-12-05T11:59:11.012Z,31.37
2018-12-05T12:01:39.260Z,30.07
2018-12-05T12:04:07.577Z,21.07
2018-12-05T12:06:35.865Z,29.20
2018-12-05T12:09:07.098Z,31.17
2018-12-05T12:11:35.380Z,32.60
2018-12-05T12:14:04.218Z,35.20
2018-12-05T12:16:32.611Z,38.23
2018-12-05T12:19:00.975Z,31.47
2018-12-05T12:21:29.213Z,33.40
2018-12-05T12:23:57.546Z,21.67
2018-12-05T12:26:32.968Z,21.97
2018-12-05T12:28:56.068Z,23.50
2018-12-05T12:31:24.331Z,30.63
2018-12-05T12:33:53.105Z,27.40
2018-12-05T12:36:21.356Z,25.50
2018-12-05T12:38:49.656Z,29.20
2018-12-05T12:41:17.943Z,23.57
2018-12-05T12:43:46.245Z,23.60
2018-12-05T12:46:14.503Z,26.03
2018-12-05T12:48:42.777Z,34.73
2018-12-05T12:51:11.080Z,26.20
2018-12-05T12:53:39.347Z,24.90
2018-12-05T12:56:07.749Z,27.73
2018-12-05T12:58:35.999Z,29.87
2018-12-05T13:01:04.234Z,21.90
2018-12-05T13:03:32.550Z,32.77
2018-12-05T13:06:00.787Z,27.73
2018-12-05T13:08:29.073Z,30.30
2018-12-05T13:10:57.395Z,22.97
2018-12-05T13:13:25.613Z,30.40
2018-12-05T13:15:53.877Z,24.70
2018-12-05T13:18:22.115Z,21.80
2018-12-05T13:20:50.362Z,23.27
2018-12-05T13:23:18.669Z,21.03
2018-12-05T13:25:46.925Z,24.87
2018-12-05T13:28:15.229Z,23.97
2018-12-05T13:30:43.640Z,35.23
2018-12-05T13:33:11.890Z,22.97
2018-12-05T13:35:40.162Z,25.40
2018-12-05T13:38:08.461Z,29.67
2018-12-05T13:40:36.692Z,26.60
2018-12-05T13:43:04.932Z,22.73
2018-12-05T13:45:33.340Z,25.10
2018-12-05T13:48:01.666Z,23.33
2018-12-05T13:50:29.875Z,29.17
2018-12-05T13:52:58.282Z,28.53
2018-12-05T13:55:26.541Z,25.50
2018-12-05T13:57:54.862Z,25.47
2018-12-05T14:00:23.306Z,23.30
2018-12-05T14:02:51.581Z,28.13
2018-12-05T14:05:19.897Z,21.00
2018-12-05T14:07:48.161Z,30.70
2018-12-05T14:10:16.460Z,22.67
2018-12-05T14:12:44.711Z,24.20
2018-12-05T14:15:13.025Z,24.17
2018-12-05T14:17:41.261Z,23.50
2018-12-05T14:20:09.694Z,23.63
2018-12-05T14:22:38.049Z,25.17
2018-12-05T14:25:06.844Z,21.57
2018-12-05T14:27:35.140Z,22.47
2018-12-05T14:30:05.040Z,21.77
2018-12-05T14:32:33.335Z,31.23
2018-12-05T14:35:01.609Z,17.30
2018-12-05T14:37:29.942Z,24.90
2018-12-05T14:39:58.136Z,19.77
2018-12-05T14:42:26.385Z,22.87
2018-12-05T14:44:54.690Z,23.67
2018-12-05T14:47:22.943Z,19.53
2018-12-05T14:49:51.215Z,24.97
2018-12-05T14:52:19.451Z,30.07
2018-12-05T14:54:47.744Z,21.93
2018-12-05T14:57:16.012Z,23.13
2018-12-05T14:59:44.294Z,21.67
2018-12-05T15:02:12.584Z,28.57
2018-12-05T15:04:41.873Z,25.13
2018-12-05T15:07:10.202Z,23.37
2018-12-05T15:09:38.438Z,20.17
2018-12-05T15:12:06.782Z,28.00
2018-12-05T15:14:35.007Z,21.87
2018-12-05T15:17:03.251Z,26.13
2018-12-05T15:19:31.501Z,20.07
2018-12-05T15:21:59.823Z,19.47
2018-12-05T15:24:28.117Z,20.77
2018-12-05T15:26:56.445Z,21.10
2018-12-05T15:29:25.775Z,21.70
2018-12-05T15:31:54.201Z,20.30
2018-12-05T15:34:22.458Z,19.90
2018-12-05T15:36:50.793Z,27.50
2018-12-05T15:39:20.112Z,21.03
2018-12-05T15:41:48.336Z,21.13
2018-12-05T15:44:16.575Z,20.73
2018-12-05T15:46:44.864Z,24.70
2018-12-05T15:49:13.219Z,29.97
2018-12-05T15:51:41.768Z,24.00
2018-12-05T15:54:10.042Z,23.80
2018-12-05T15:56:38.493Z,21.40
2018-12-05T15:59:06.741Z,20.60
2018-12-05T16:01:35.056Z,27.30
2018-12-05T16:04:03.377Z,22.27
2018-12-05T16:06:31.694Z,23.33
2018-12-05T16:09:00.023Z,21.93
2018-12-05T16:11:28.321Z,23.20
2018-12-05T16:13:56.546Z,21.33
2018-12-05T16:16:24.816Z,23.13
2018-12-05T16:18:53.088Z,21.10
2018-12-05T16:21:21.376Z,22.23
2018-12-05T16:23:49.725Z,20.30
2018-12-05T16:26:18.020Z,24.43
2018-12-05T16:28:46.312Z,30.80
2018-12-05T16:31:14.569Z,24.43
2018-12-05T16:33:42.832Z,22.60
2018-12-05T16:36:11.464Z,25.80
2018-12-05T16:38:40.060Z,24.63
2018-12-05T16:41:08.347Z,25.03
2018-12-05T16:43:36.720Z,28.10
2018-12-05T16:46:04.977Z,23.90
2018-12-05T16:48:33.259Z,27.80
2018-12-05T16:51:01.514Z,23.40
2018-12-05T16:53:29.760Z,22.57
2018-12-05T16:55:58.013Z,22.37
2018-12-05T16:58:26.335Z,20.90
2018-12-05T17:00:54.617Z,26.97
2018-12-05T17:03:22.872Z,26.70
2018-12-05T17:05:51.104Z,19.77
2018-12-05T17:08:19.361Z,21.17
2018-12-05T17:10:47.604Z,24.73
2018-12-05T17:13:15.857Z,26.93
2018-12-05T17:15:44.088Z,15.83
2018-12-05T17:18:12.415Z,19.90
2018-12-05T17:20:40.661Z,23.33
2018-12-05T17:23:08.905Z,21.37
2018-12-05T17:25:37.240Z,16.87
2018-12-05T17:28:05.612Z,26.83
2018-12-05T17:30:33.874Z,21.13
2018-12-05T17:33:02.240Z,21.90
2018-12-05T17:35:30.642Z,20.90
2018-12-05T17:37:58.936Z,20.90
2018-12-05T17:40:27.217Z,25.00
2018-12-05T17:42:55.476Z,18.70
2018-12-05T17:45:23.728Z,22.37
2018-12-05T17:47:51.956Z,23.63
2018-12-05T17:50:20.422Z,19.77
2018-12-05T17:52:48.677Z,22.50
2018-12-05T17:55:17.000Z,20.10
2018-12-05T17:57:45.708Z,17.93
2018-12-05T18:00:13.977Z,25.47
2018-12-05T18:02:42.206Z,21.63
2018-12-05T18:05:10.499Z,24.60
2018-12-05T18:07:38.784Z,18.13
2018-12-05T18:10:07.916Z,21.57
2018-12-05T18:12:36.157Z,19.07
2018-12-05T18:15:04.637Z,19.50
2018-12-05T18:17:32.855Z,22.77
2018-12-05T18:20:01.125Z,24.43
2018-12-05T18:22:29.408Z,29.07
2018-12-05T18:24:57.720Z,21.00
2018-12-05T18:27:26.043Z,19.93
2018-12-05T18:29:54.327Z,18.33
2018-12-05T18:32:22.544Z,19.23
2018-12-05T18:34:50.830Z,23.43
2018-12-05T18:37:19.592Z,19.33
2018-12-05T18:39:47.836Z,20.03
2018-12-05T18:42:16.126Z,19.87
2018-12-05T18:44:45.009Z,24.70
2018-12-05T18:47:13.308Z,21.27
2018-12-05T18:49:41.639Z,16.00
2018-12-05T18:52:09.925Z,21.40
2018-12-05T18:54:38.157Z,23.00
2018-12-05T18:57:09.525Z,17.37
2018-12-05T18:59:36.700Z,16.63
2018-12-05T19:02:05.226Z,22.07
2018-12-05T19:04:33.833Z,19.13
2018-12-05T19:07:02.142Z,17.93
2018-12-05T19:09:30.368Z,21.00
2018-12-05T19:11:59.258Z,19.70
2018-12-05T19:14:33.341Z,17.93
2018-12-05T19:17:01.619Z,20.80
2018-12-05T19:19:29.927Z,22.80
2018-12-05T19:21:58.290Z,24.03
2018-12-05T19:24:26.538Z,18.23
2018-12-05T19:26:54.805Z,19.77
2018-12-05T19:29:23.420Z,20.57
2018-12-05T19:31:52.196Z,19.87
2018-12-05T19:34:20.504Z,29.90
2018-12-05T19:36:48.834Z,26.33
2018-12-05T19:39:17.132Z,20.00
2018-12-05T19:41:45.558Z,26.30
2018-12-05T19:44:13.827Z,24.27
2018-12-05T19:46:42.154Z,21.33
2018-12-05T19:49:10.584Z,26.23
2018-12-05T19:51:38.987Z,21.90
2018-12-05T19:54:07.279Z,27.23
2018-12-05T19:56:35.772Z,33.13
2018-12-05T19:59:04.052Z,23.33
2018-12-05T20:01:32.405Z,18.93
2018-12-05T20:04:00.692Z,23.50
2018-12-05T20:06:29.029Z,20.70
2018-12-05T20:08:57.340Z,28.40
2018-12-05T20:11:25.680Z,25.73
2018-12-05T20:13:54.011Z,28.90
2018-12-05T20:16:22.254Z,22.77
2018-12-05T20:18:50.579Z,23.60
2018-12-05T20:21:18.804Z,25.50
2018-12-05T20:23:47.185Z,26.67
2018-12-05T20:26:15.504Z,19.50
2018-12-05T20:28:43.825Z,20.93
2018-12-05T20:31:12.087Z,19.17
2018-12-05T20:33:40.321Z,14.63
2018-12-05T20:36:08.560Z,19.07
2018-12-05T20:38:37.813Z,24.83
2018-12-05T20:41:06.131Z,22.97
2018-12-05T20:43:34.442Z,16.30
2018-12-05T20:46:02.701Z,22.33
2018-12-05T20:48:31.914Z,20.73
2018-12-05T20:51:00.199Z,23.87
2018-12-05T20:53:28.407Z,24.23
2018-12-05T20:55:56.661Z,22.13
2018-12-05T20:58:24.923Z,20.00
2018-12-05T21:00:53.201Z,20.73
2018-12-05T21:03:21.446Z,22.83
2018-12-05T21:05:49.716Z,21.77
2018-12-05T21:08:18.174Z,22.13
2018-12-05T21:10:46.516Z,27.23
2018-12-05T21:13:15.764Z,19.57
2018-12-05T21:15:44.018Z,24.40
2018-12-05T21:18:12.291Z,28.07
2018-12-05T21:20:40.752Z,18.43
2018-12-05T21:23:09.060Z,20.73
2018-12-05T21:25:37.475Z,17.60
2018-12-05T21:28:06.071Z,23.57
2018-12-05T21:30:34.532Z,18.50
2018-12-05T21:33:02.804Z,20.77
2018-12-05T21:35:30.998Z,15.20
2018-12-05T21:37:59.296Z,23.33
2018-12-05T21:40:27.711Z,21.43
2018-12-05T21:42:56.140Z,15.67
2018-12-05T21:45:24.452Z,16.37
2018-12-05T21:47:52.706Z,19.90
2018-12-05T21:50:21.009Z,17.60
2018-12-05T21:52:49.276Z,18.37
2018-12-05T21:55:17.514Z,18.10
2018-12-05T21:57:46.072Z,15.77
2018-12-05T22:00:14.622Z,16.80
2018-12-05T22:02:42.928Z,14.40
2018-12-05T22:05:11.224Z,14.23
2018-12-05T22:07:39.465Z,14.13
2018-12-05T22:10:08.119Z,20.43
2018-12-05T22:12:36.577Z,22.83
2018-12-05T22:15:05.220Z,17.17
2018-12-05T22:17:33.942Z,19.37
2018-12-05T22:20:02.190Z,19.30
2018-12-05T22:22:30.437Z,22.23
2018-12-05T22:24:59.001Z,16.40
2018-12-05T22:27:27.299Z,21.10
2018-12-05T22:29:55.552Z,15.20
2018-12-05T22:32:23.856Z,17.27
2018-12-05T22:34:52.158Z,14.13
2018-12-05T22:37:20.404Z,16.73
2018-12-05T22:39:48.659Z,18.00
2018-12-05T22:42:16.920Z,19.77
2018-12-05T22:44:45.236Z,16.00
2018-12-05T22:47:13.509Z,21.40
2018-12-05T22:49:41.862Z,20.03
2018-12-05T22:52:10.096Z,17.70
2018-12-05T22:54:38.415Z,17.63
2018-12-05T22:57:12.985Z,21.63
2018-12-05T22:59:41.379Z,23.80
2018-12-05T23:02:09.740Z,21.47
2018-12-05T23:04:38.000Z,23.30
2018-12-05T23:07:06.400Z,22.27
2018-12-05T23:09:34.732Z,23.80
2018-12-05T23:12:03.196Z,23.20
2018-12-05T23:14:31.427Z,19.80
2018-12-05T23:16:59.667Z,17.13
2018-12-05T23:19:28.159Z,19.43
2018-12-05T23:21:56.548Z,25.60
2018-12-05T23:24:24.852Z,23.03
2018-12-05T23:26:54.836Z,21.53
2018-12-05T23:29:23.423Z,28.13
2018-12-05T23:31:51.662Z,23.30
2018-12-05T23:34:19.987Z,28.73
2018-12-05T23:36:48.306Z,25.43
2018-12-05T23:39:16.575Z,30.33
2018-12-05T23:41:44.826Z,24.40
2018-12-05T23:44:13.079Z,30.80
2018-12-05T23:46:41.353Z,24.80
2018-12-05T23:49:09.648Z,29.63
2018-12-05T23:51:38.047Z,20.07
2018-12-05T23:54:06.496Z,22.70
2018-12-05T23:56:34.753Z,29.47
2018-12-05T23:59:03.026Z,25.57
